Terminal Aerodrome Forecast
Issued by NWS

Home | Current Version | Previous Version | Text Only | Print | Product List | Glossary On
Versions: 1 2 3 4 5 6 7 8 9 10 11 12 13 14 15 16 17 18 19 20 21 22 23 24 25 26 27 28
000
FTUS41 KRNK 210538
TAFBCB
TAF
KBCB 210538Z 2106/2206 00000KT P6SM SCT028 BKN050
      TEMPO 2106/2109 OVC028
     FM211500 VRB04KT P6SM OVC020
     FM211700 26004KT P6SM BKN070
     FM220300 28010G20KT P6SM BKN035=

USA.gov is the U.S. government's official web portal to all federal, state and local government web resources and services.